sensor_id;sensor_type;location;lat;lon;timestamp;P1;durP1;ratioP1;P2;durP2;ratioP2
19111;SDS011;9688;51.906;8.376;2023-08-06T00:01:58;7.50;;;4.30;;
19111;SDS011;9688;51.906;8.376;2023-08-06T00:04:43;5.50;;;4.23;;
19111;SDS011;9688;51.906;8.376;2023-08-06T00:07:29;6.80;;;3.83;;
19111;SDS011;9688;51.906;8.376;2023-08-06T00:10:15;8.80;;;3.87;;
19111;SDS011;9688;51.906;8.376;2023-08-06T00:13:01;5.87;;;3.60;;
19111;SDS011;9688;51.906;8.376;2023-08-06T00:15:49;4.30;;;3.90;;
19111;SDS011;9688;51.906;8.376;2023-08-06T00:18:34;7.30;;;4.07;;
19111;SDS011;9688;51.906;8.376;2023-08-06T00:21:20;4.27;;;3.57;;
19111;SDS011;9688;51.906;8.376;2023-08-06T00:24:06;6.93;;;4.10;;
19111;SDS011;9688;51.906;8.376;2023-08-06T00:26:52;3.90;;;3.60;;
19111;SDS011;9688;51.906;8.376;2023-08-06T00:29:37;9.47;;;3.80;;
19111;SDS011;9688;51.906;8.376;2023-08-06T00:32:24;6.60;;;4.10;;
19111;SDS011;9688;51.906;8.376;2023-08-06T00:35:10;6.13;;;4.10;;
19111;SDS011;9688;51.906;8.376;2023-08-06T00:37:57;4.30;;;3.90;;
19111;SDS011;9688;51.906;8.376;2023-08-06T00:40:43;7.27;;;4.00;;
19111;SDS011;9688;51.906;8.376;2023-08-06T00:43:29;5.03;;;4.33;;
19111;SDS011;9688;51.906;8.376;2023-08-06T00:46:15;5.53;;;4.00;;
19111;SDS011;9688;51.906;8.376;2023-08-06T00:49:03;4.23;;;3.83;;
19111;SDS011;9688;51.906;8.376;2023-08-06T00:51:49;4.27;;;3.63;;
19111;SDS011;9688;51.906;8.376;2023-08-06T00:54:38;6.07;;;3.80;;
19111;SDS011;9688;51.906;8.376;2023-08-06T00:57:24;4.53;;;4.13;;
19111;SDS011;9688;51.906;8.376;2023-08-06T01:00:11;4.67;;;3.87;;
19111;SDS011;9688;51.906;8.376;2023-08-06T01:02:58;6.00;;;3.80;;
19111;SDS011;9688;51.906;8.376;2023-08-06T01:05:46;4.70;;;3.90;;
19111;SDS011;9688;51.906;8.376;2023-08-06T01:08:34;4.30;;;4.00;;
19111;SDS011;9688;51.906;8.376;2023-08-06T01:11:31;5.07;;;4.03;;
19111;SDS011;9688;51.906;8.376;2023-08-06T01:14:23;5.50;;;3.93;;
19111;SDS011;9688;51.906;8.376;2023-08-06T01:17:14;7.50;;;5.20;;
19111;SDS011;9688;51.906;8.376;2023-08-06T01:20:00;4.63;;;4.23;;
19111;SDS011;9688;51.906;8.376;2023-08-06T01:22:48;5.73;;;4.33;;
19111;SDS011;9688;51.906;8.376;2023-08-06T01:25:34;5.33;;;3.67;;
19111;SDS011;9688;51.906;8.376;2023-08-06T01:28:36;6.37;;;4.37;;
19111;SDS011;9688;51.906;8.376;2023-08-06T01:31:30;4.60;;;4.10;;
19111;SDS011;9688;51.906;8.376;2023-08-06T01:34:18;5.33;;;4.83;;
19111;SDS011;9688;51.906;8.376;2023-08-06T01:37:07;5.27;;;4.70;;
19111;SDS011;9688;51.906;8.376;2023-08-06T01:39:54;7.90;;;4.37;;
19111;SDS011;9688;51.906;8.376;2023-08-06T01:42:40;4.97;;;4.53;;
19111;SDS011;9688;51.906;8.376;2023-08-06T01:45:26;8.07;;;4.50;;
19111;SDS011;9688;51.906;8.376;2023-08-06T01:48:12;5.13;;;4.37;;
19111;SDS011;9688;51.906;8.376;2023-08-06T01:50:58;5.33;;;4.63;;
19111;SDS011;9688;51.906;8.376;2023-08-06T01:53:44;8.53;;;4.53;;
19111;SDS011;9688;51.906;8.376;2023-08-06T01:56:31;5.00;;;4.60;;
19111;SDS011;9688;51.906;8.376;2023-08-06T01:59:16;4.53;;;3.77;;
19111;SDS011;9688;51.906;8.376;2023-08-06T02:02:03;6.17;;;4.40;;
19111;SDS011;9688;51.906;8.376;2023-08-06T02:04:49;4.63;;;4.17;;
19111;SDS011;9688;51.906;8.376;2023-08-06T02:07:35;6.23;;;3.70;;
19111;SDS011;9688;51.906;8.376;2023-08-06T02:10:21;5.13;;;4.00;;
19111;SDS011;9688;51.906;8.376;2023-08-06T02:13:08;5.83;;;4.23;;
19111;SDS011;9688;51.906;8.376;2023-08-06T02:15:54;5.93;;;4.27;;
19111;SDS011;9688;51.906;8.376;2023-08-06T02:18:40;4.37;;;3.97;;
19111;SDS011;9688;51.906;8.376;2023-08-06T02:21:26;5.37;;;4.03;;
19111;SDS011;9688;51.906;8.376;2023-08-06T02:24:12;4.13;;;3.83;;
19111;SDS011;9688;51.906;8.376;2023-08-06T02:26:58;4.53;;;3.70;;
19111;SDS011;9688;51.906;8.376;2023-08-06T02:29:45;8.97;;;4.30;;
19111;SDS011;9688;51.906;8.376;2023-08-06T02:32:31;4.93;;;3.70;;
19111;SDS011;9688;51.906;8.376;2023-08-06T02:35:19;4.53;;;3.77;;
19111;SDS011;9688;51.906;8.376;2023-08-06T02:38:05;4.23;;;3.83;;
19111;SDS011;9688;51.906;8.376;2023-08-06T02:40:51;4.47;;;3.83;;
19111;SDS011;9688;51.906;8.376;2023-08-06T02:43:37;6.60;;;4.37;;
19111;SDS011;9688;51.906;8.376;2023-08-06T02:46:24;5.07;;;4.60;;
19111;SDS011;9688;51.906;8.376;2023-08-06T02:49:09;6.50;;;4.30;;
19111;SDS011;9688;51.906;8.376;2023-08-06T02:51:55;5.53;;;4.80;;
19111;SDS011;9688;51.906;8.376;2023-08-06T02:54:41;6.13;;;4.67;;
19111;SDS011;9688;51.906;8.376;2023-08-06T02:57:28;6.90;;;4.70;;
19111;SDS011;9688;51.906;8.376;2023-08-06T03:00:13;6.03;;;5.33;;
19111;SDS011;9688;51.906;8.376;2023-08-06T03:03:00;5.37;;;4.87;;
19111;SDS011;9688;51.906;8.376;2023-08-06T03:05:51;8.33;;;5.30;;
19111;SDS011;9688;51.906;8.376;2023-08-06T03:08:36;5.47;;;4.93;;
19111;SDS011;9688;51.906;8.376;2023-08-06T03:11:22;6.83;;;5.40;;
19111;SDS011;9688;51.906;8.376;2023-08-06T03:14:08;5.37;;;4.53;;
19111;SDS011;9688;51.906;8.376;2023-08-06T03:16:54;5.50;;;4.53;;
19111;SDS011;9688;51.906;8.376;2023-08-06T03:19:41;5.20;;;4.70;;
19111;SDS011;9688;51.906;8.376;2023-08-06T03:22:27;7.77;;;5.20;;
19111;SDS011;9688;51.906;8.376;2023-08-06T03:25:12;6.00;;;4.83;;
19111;SDS011;9688;51.906;8.376;2023-08-06T03:27:58;6.73;;;5.70;;
19111;SDS011;9688;51.906;8.376;2023-08-06T03:30:44;5.93;;;5.10;;
19111;SDS011;9688;51.906;8.376;2023-08-06T03:33:30;7.17;;;4.77;;
19111;SDS011;9688;51.906;8.376;2023-08-06T03:36:17;7.20;;;5.40;;
19111;SDS011;9688;51.906;8.376;2023-08-06T03:39:03;7.57;;;5.67;;
19111;SDS011;9688;51.906;8.376;2023-08-06T03:41:49;6.37;;;5.77;;
19111;SDS011;9688;51.906;8.376;2023-08-06T03:44:35;7.43;;;5.60;;
19111;SDS011;9688;51.906;8.376;2023-08-06T03:47:21;7.47;;;5.33;;
19111;SDS011;9688;51.906;8.376;2023-08-06T03:50:06;9.13;;;5.77;;
19111;SDS011;9688;51.906;8.376;2023-08-06T03:52:54;6.67;;;5.23;;
19111;SDS011;9688;51.906;8.376;2023-08-06T03:55:40;5.20;;;4.77;;
19111;SDS011;9688;51.906;8.376;2023-08-06T03:58:26;5.90;;;4.60;;
19111;SDS011;9688;51.906;8.376;2023-08-06T04:01:11;9.47;;;5.53;;
19111;SDS011;9688;51.906;8.376;2023-08-06T04:03:57;5.70;;;5.07;;
19111;SDS011;9688;51.906;8.376;2023-08-06T04:06:43;6.50;;;5.30;;
19111;SDS011;9688;51.906;8.376;2023-08-06T04:09:30;5.63;;;5.13;;
19111;SDS011;9688;51.906;8.376;2023-08-06T04:12:16;7.03;;;5.57;;
19111;SDS011;9688;51.906;8.376;2023-08-06T04:15:02;5.63;;;5.13;;
19111;SDS011;9688;51.906;8.376;2023-08-06T04:17:48;6.93;;;5.40;;
19111;SDS011;9688;51.906;8.376;2023-08-06T04:20:34;7.27;;;5.50;;
19111;SDS011;9688;51.906;8.376;2023-08-06T04:23:20;5.90;;;5.30;;
19111;SDS011;9688;51.906;8.376;2023-08-06T04:26:07;5.30;;;4.80;;
19111;SDS011;9688;51.906;8.376;2023-08-06T04:28:53;5.60;;;5.10;;
19111;SDS011;9688;51.906;8.376;2023-08-06T04:31:39;10.67;;;5.20;;
19111;SDS011;9688;51.906;8.376;2023-08-06T04:34:25;7.17;;;5.27;;
19111;SDS011;9688;51.906;8.376;2023-08-06T04:37:11;7.03;;;4.80;;
19111;SDS011;9688;51.906;8.376;2023-08-06T04:39:56;5.30;;;4.80;;
19111;SDS011;9688;51.906;8.376;2023-08-06T04:42:44;6.07;;;5.03;;
19111;SDS011;9688;51.906;8.376;2023-08-06T04:45:30;7.63;;;5.43;;
19111;SDS011;9688;51.906;8.376;2023-08-06T04:48:16;7.60;;;5.63;;
19111;SDS011;9688;51.906;8.376;2023-08-06T04:51:02;7.10;;;5.00;;
19111;SDS011;9688;51.906;8.376;2023-08-06T04:53:47;6.43;;;5.27;;
19111;SDS011;9688;51.906;8.376;2023-08-06T04:56:33;6.43;;;5.30;;
19111;SDS011;9688;51.906;8.376;2023-08-06T04:59:20;7.03;;;5.50;;
19111;SDS011;9688;51.906;8.376;2023-08-06T05:02:06;7.17;;;5.07;;
19111;SDS011;9688;51.906;8.376;2023-08-06T05:04:52;6.77;;;4.97;;
19111;SDS011;9688;51.906;8.376;2023-08-06T05:07:37;8.40;;;5.27;;
19111;SDS011;9688;51.906;8.376;2023-08-06T05:10:24;8.27;;;5.67;;
19111;SDS011;9688;51.906;8.376;2023-08-06T05:13:10;6.43;;;5.73;;
19111;SDS011;9688;51.906;8.376;2023-08-06T05:15:57;5.83;;;4.80;;
19111;SDS011;9688;51.906;8.376;2023-08-06T05:18:43;7.63;;;5.10;;
19111;SDS011;9688;51.906;8.376;2023-08-06T05:21:29;7.67;;;5.07;;
19111;SDS011;9688;51.906;8.376;2023-08-06T05:24:15;5.37;;;4.47;;
19111;SDS011;9688;51.906;8.376;2023-08-06T05:27:00;7.47;;;5.20;;
19111;SDS011;9688;51.906;8.376;2023-08-06T05:29:47;7.20;;;4.93;;
19111;SDS011;9688;51.906;8.376;2023-08-06T05:32:34;6.53;;;5.00;;
19111;SDS011;9688;51.906;8.376;2023-08-06T05:35:20;5.47;;;4.93;;
19111;SDS011;9688;51.906;8.376;2023-08-06T05:38:06;5.20;;;4.73;;
19111;SDS011;9688;51.906;8.376;2023-08-06T05:40:52;6.60;;;4.80;;
19111;SDS011;9688;51.906;8.376;2023-08-06T05:43:37;5.80;;;4.60;;
19111;SDS011;9688;51.906;8.376;2023-08-06T05:46:24;6.50;;;4.37;;
19111;SDS011;9688;51.906;8.376;2023-08-06T05:49:11;8.33;;;4.57;;
19111;SDS011;9688;51.906;8.376;2023-08-06T05:51:57;6.00;;;4.37;;
19111;SDS011;9688;51.906;8.376;2023-08-06T05:54:43;5.20;;;4.70;;
19111;SDS011;9688;51.906;8.376;2023-08-06T05:57:29;5.77;;;4.77;;
19111;SDS011;9688;51.906;8.376;2023-08-06T06:00:15;5.80;;;4.40;;
19111;SDS011;9688;51.906;8.376;2023-08-06T06:03:01;4.90;;;4.37;;
19111;SDS011;9688;51.906;8.376;2023-08-06T06:05:48;5.93;;;4.50;;
19111;SDS011;9688;51.906;8.376;2023-08-06T06:08:34;5.10;;;4.60;;
19111;SDS011;9688;51.906;8.376;2023-08-06T06:11:20;6.40;;;4.40;;
19111;SDS011;9688;51.906;8.376;2023-08-06T06:14:06;7.73;;;4.83;;
19111;SDS011;9688;51.906;8.376;2023-08-06T06:16:52;5.57;;;4.30;;
19111;SDS011;9688;51.906;8.376;2023-08-06T06:19:38;7.40;;;5.13;;
19111;SDS011;9688;51.906;8.376;2023-08-06T06:22:25;6.17;;;4.87;;
19111;SDS011;9688;51.906;8.376;2023-08-06T06:25:11;7.90;;;4.63;;
19111;SDS011;9688;51.906;8.376;2023-08-06T06:27:57;5.13;;;4.27;;
19111;SDS011;9688;51.906;8.376;2023-08-06T06:30:43;6.20;;;4.17;;
19111;SDS011;9688;51.906;8.376;2023-08-06T06:33:29;5.27;;;4.53;;
19111;SDS011;9688;51.906;8.376;2023-08-06T06:36:15;6.43;;;5.00;;
19111;SDS011;9688;51.906;8.376;2023-08-06T06:39:03;7.13;;;4.30;;
19111;SDS011;9688;51.906;8.376;2023-08-06T06:41:48;5.07;;;4.17;;
19111;SDS011;9688;51.906;8.376;2023-08-06T06:44:34;7.83;;;4.63;;
19111;SDS011;9688;51.906;8.376;2023-08-06T06:47:20;4.83;;;4.40;;
19111;SDS011;9688;51.906;8.376;2023-08-06T06:50:07;5.80;;;4.30;;
19111;SDS011;9688;51.906;8.376;2023-08-06T06:52:53;5.27;;;4.10;;
19111;SDS011;9688;51.906;8.376;2023-08-06T06:55:40;4.90;;;3.80;;
19111;SDS011;9688;51.906;8.376;2023-08-06T06:58:26;4.77;;;4.37;;
19111;SDS011;9688;51.906;8.376;2023-08-06T07:01:12;5.40;;;3.60;;
19111;SDS011;9688;51.906;8.376;2023-08-06T07:03:59;4.70;;;4.30;;
19111;SDS011;9688;51.906;8.376;2023-08-06T07:06:48;4.17;;;3.87;;
19111;SDS011;9688;51.906;8.376;2023-08-06T07:09:36;4.80;;;3.80;;
19111;SDS011;9688;51.906;8.376;2023-08-06T07:12:23;4.87;;;3.80;;
19111;SDS011;9688;51.906;8.376;2023-08-06T07:15:09;5.07;;;4.57;;
19111;SDS011;9688;51.906;8.376;2023-08-06T07:17:56;5.30;;;4.53;;
19111;SDS011;9688;51.906;8.376;2023-08-06T07:20:41;4.47;;;4.07;;
19111;SDS011;9688;51.906;8.376;2023-08-06T07:23:33;4.60;;;4.13;;
19111;SDS011;9688;51.906;8.376;2023-08-06T07:26:18;5.07;;;3.83;;
19111;SDS011;9688;51.906;8.376;2023-08-06T07:29:06;6.67;;;3.30;;
19111;SDS011;9688;51.906;8.376;2023-08-06T07:31:51;4.47;;;3.90;;
19111;SDS011;9688;51.906;8.376;2023-08-06T07:34:37;5.33;;;3.60;;
19111;SDS011;9688;51.906;8.376;2023-08-06T07:37:24;7.13;;;3.60;;
19111;SDS011;9688;51.906;8.376;2023-08-06T07:40:10;5.37;;;4.03;;
19111;SDS011;9688;51.906;8.376;2023-08-06T07:42:56;3.93;;;3.53;;
19111;SDS011;9688;51.906;8.376;2023-08-06T07:45:47;6.67;;;3.00;;
19111;SDS011;9688;51.906;8.376;2023-08-06T07:48:32;4.73;;;3.47;;
19111;SDS011;9688;51.906;8.376;2023-08-06T07:51:18;3.43;;;3.20;;
19111;SDS011;9688;51.906;8.376;2023-08-06T07:54:07;3.37;;;2.83;;
19111;SDS011;9688;51.906;8.376;2023-08-06T07:56:52;2.70;;;2.57;;
19111;SDS011;9688;51.906;8.376;2023-08-06T07:59:38;2.80;;;2.60;;
19111;SDS011;9688;51.906;8.376;2023-08-06T08:02:27;4.40;;;2.70;;
19111;SDS011;9688;51.906;8.376;2023-08-06T08:05:14;2.57;;;2.37;;
19111;SDS011;9688;51.906;8.376;2023-08-06T08:08:00;2.47;;;2.30;;
19111;SDS011;9688;51.906;8.376;2023-08-06T08:10:46;2.40;;;2.20;;
19111;SDS011;9688;51.906;8.376;2023-08-06T08:13:32;2.40;;;2.20;;
19111;SDS011;9688;51.906;8.376;2023-08-06T08:16:18;3.50;;;2.40;;
19111;SDS011;9688;51.906;8.376;2023-08-06T08:19:06;2.40;;;2.20;;
19111;SDS011;9688;51.906;8.376;2023-08-06T08:21:51;2.23;;;1.77;;
19111;SDS011;9688;51.906;8.376;2023-08-06T08:24:38;2.30;;;1.90;;
19111;SDS011;9688;51.906;8.376;2023-08-06T08:27:24;2.00;;;1.90;;
19111;SDS011;9688;51.906;8.376;2023-08-06T08:30:10;2.07;;;1.90;;
19111;SDS011;9688;51.906;8.376;2023-08-06T08:32:56;1.80;;;1.70;;
19111;SDS011;9688;51.906;8.376;2023-08-06T08:35:45;1.93;;;1.83;;
19111;SDS011;9688;51.906;8.376;2023-08-06T08:38:31;2.57;;;1.97;;
19111;SDS011;9688;51.906;8.376;2023-08-06T08:41:17;2.27;;;2.07;;
19111;SDS011;9688;51.906;8.376;2023-08-06T08:44:03;3.43;;;2.17;;
19111;SDS011;9688;51.906;8.376;2023-08-06T08:46:54;2.17;;;1.97;;
19111;SDS011;9688;51.906;8.376;2023-08-06T08:49:40;1.80;;;1.80;;
19111;SDS011;9688;51.906;8.376;2023-08-06T08:52:28;2.80;;;1.77;;
19111;SDS011;9688;51.906;8.376;2023-08-06T08:55:16;2.40;;;2.00;;
19111;SDS011;9688;51.906;8.376;2023-08-06T08:58:05;2.60;;;2.20;;
19111;SDS011;9688;51.906;8.376;2023-08-06T09:00:51;2.00;;;1.90;;
19111;SDS011;9688;51.906;8.376;2023-08-06T09:03:37;1.67;;;1.67;;
19111;SDS011;9688;51.906;8.376;2023-08-06T09:06:23;2.17;;;2.07;;
19111;SDS011;9688;51.906;8.376;2023-08-06T09:09:13;2.60;;;2.05;;
19111;SDS011;9688;51.906;8.376;2023-08-06T09:12:09;1.90;;;1.80;;
19111;SDS011;9688;51.906;8.376;2023-08-06T09:14:58;2.53;;;1.98;;
19111;SDS011;9688;51.906;8.376;2023-08-06T09:17:43;3.57;;;1.80;;
19111;SDS011;9688;51.906;8.376;2023-08-06T09:20:29;3.10;;;2.37;;
19111;SDS011;9688;51.906;8.376;2023-08-06T09:23:19;2.97;;;1.67;;
19111;SDS011;9688;51.906;8.376;2023-08-06T09:26:06;2.70;;;2.23;;
19111;SDS011;9688;51.906;8.376;2023-08-06T09:28:56;2.57;;;2.37;;
19111;SDS011;9688;51.906;8.376;2023-08-06T09:31:47;2.63;;;2.43;;
19111;SDS011;9688;51.906;8.376;2023-08-06T09:34:35;3.33;;;2.77;;
19111;SDS011;9688;51.906;8.376;2023-08-06T09:37:24;2.97;;;2.70;;
19111;SDS011;9688;51.906;8.376;2023-08-06T09:40:26;4.50;;;2.80;;
19111;SDS011;9688;51.906;8.376;2023-08-06T09:43:14;2.70;;;2.30;;
19111;SDS011;9688;51.906;8.376;2023-08-06T09:46:00;3.30;;;2.50;;
19111;SDS011;9688;51.906;8.376;2023-08-06T09:48:46;3.40;;;2.70;;
19111;SDS011;9688;51.906;8.376;2023-08-06T09:51:32;2.67;;;2.43;;
19111;SDS011;9688;51.906;8.376;2023-08-06T09:54:17;2.93;;;2.40;;
19111;SDS011;9688;51.906;8.376;2023-08-06T09:57:04;2.83;;;2.43;;
19111;SDS011;9688;51.906;8.376;2023-08-06T09:59:52;2.77;;;2.57;;
19111;SDS011;9688;51.906;8.376;2023-08-06T10:02:38;2.67;;;2.47;;
19111;SDS011;9688;51.906;8.376;2023-08-06T10:05:25;2.20;;;2.10;;
19111;SDS011;9688;51.906;8.376;2023-08-06T10:08:12;2.97;;;2.30;;
19111;SDS011;9688;51.906;8.376;2023-08-06T10:10:58;3.45;;;2.47;;
19111;SDS011;9688;51.906;8.376;2023-08-06T10:13:46;2.50;;;2.30;;
19111;SDS011;9688;51.906;8.376;2023-08-06T10:16:34;1.98;;;1.88;;
19111;SDS011;9688;51.906;8.376;2023-08-06T10:19:22;2.40;;;2.20;;
19111;SDS011;9688;51.906;8.376;2023-08-06T10:22:14;2.80;;;2.20;;
19111;SDS011;9688;51.906;8.376;2023-08-06T10:25:02;3.88;;;2.33;;
19111;SDS011;9688;51.906;8.376;2023-08-06T10:27:53;2.07;;;1.97;;
19111;SDS011;9688;51.906;8.376;2023-08-06T10:30:43;2.73;;;1.97;;
19111;SDS011;9688;51.906;8.376;2023-08-06T10:33:42;2.00;;;1.90;;
19111;SDS011;9688;51.906;8.376;2023-08-06T10:36:28;4.13;;;2.17;;
19111;SDS011;9688;51.906;8.376;2023-08-06T10:39:14;2.30;;;2.10;;
19111;SDS011;9688;51.906;8.376;2023-08-06T10:42:01;2.10;;;2.00;;
19111;SDS011;9688;51.906;8.376;2023-08-06T10:48:03;3.17;;;2.27;;
19111;SDS011;9688;51.906;8.376;2023-08-06T10:50:51;2.83;;;2.50;;
19111;SDS011;9688;51.906;8.376;2023-08-06T10:53:37;2.70;;;2.23;;
19111;SDS011;9688;51.906;8.376;2023-08-06T10:56:29;2.00;;;1.90;;
19111;SDS011;9688;51.906;8.376;2023-08-06T10:59:16;2.47;;;1.90;;
19111;SDS011;9688;51.906;8.376;2023-08-06T11:02:01;1.87;;;1.77;;
19111;SDS011;9688;51.906;8.376;2023-08-06T11:04:50;2.70;;;2.03;;
19111;SDS011;9688;51.906;8.376;2023-08-06T11:07:38;1.80;;;1.70;;
19111;SDS011;9688;51.906;8.376;2023-08-06T11:10:24;4.23;;;1.90;;
19111;SDS011;9688;51.906;8.376;2023-08-06T11:13:10;2.53;;;1.90;;
19111;SDS011;9688;51.906;8.376;2023-08-06T11:15:58;2.30;;;2.10;;
19111;SDS011;9688;51.906;8.376;2023-08-06T11:18:46;2.00;;;1.90;;
19111;SDS011;9688;51.906;8.376;2023-08-06T11:21:32;2.20;;;2.00;;
19111;SDS011;9688;51.906;8.376;2023-08-06T11:24:20;2.00;;;1.90;;
19111;SDS011;9688;51.906;8.376;2023-08-06T11:27:11;2.70;;;1.90;;
19111;SDS011;9688;51.906;8.376;2023-08-06T11:29:58;2.80;;;2.40;;
19111;SDS011;9688;51.906;8.376;2023-08-06T11:32:45;3.00;;;2.10;;
19111;SDS011;9688;51.906;8.376;2023-08-06T11:35:33;1.87;;;1.77;;
19111;SDS011;9688;51.906;8.376;2023-08-06T11:38:20;2.00;;;1.90;;
19111;SDS011;9688;51.906;8.376;2023-08-06T11:41:07;2.10;;;2.00;;
19111;SDS011;9688;51.906;8.376;2023-08-06T11:43:53;2.00;;;1.90;;
19111;SDS011;9688;51.906;8.376;2023-08-06T11:49:46;2.20;;;2.00;;
19111;SDS011;9688;51.906;8.376;2023-08-06T11:52:34;2.13;;;1.90;;
19111;SDS011;9688;51.906;8.376;2023-08-06T11:55:22;1.80;;;1.70;;
19111;SDS011;9688;51.906;8.376;2023-08-06T11:58:10;2.53;;;2.33;;
19111;SDS011;9688;51.906;8.376;2023-08-06T12:00:56;2.90;;;2.20;;
19111;SDS011;9688;51.906;8.376;2023-08-06T12:03:43;2.70;;;2.23;;
19111;SDS011;9688;51.906;8.376;2023-08-06T12:06:29;2.40;;;2.10;;
19111;SDS011;9688;51.906;8.376;2023-08-06T12:09:14;3.97;;;2.33;;
19111;SDS011;9688;51.906;8.376;2023-08-06T12:12:00;2.43;;;2.33;;
19111;SDS011;9688;51.906;8.376;2023-08-06T12:14:48;3.13;;;2.33;;
19111;SDS011;9688;51.906;8.376;2023-08-06T12:17:34;2.77;;;2.43;;
19111;SDS011;9688;51.906;8.376;2023-08-06T12:20:23;3.67;;;2.50;;
19111;SDS011;9688;51.906;8.376;2023-08-06T12:23:09;2.00;;;1.90;;
19111;SDS011;9688;51.906;8.376;2023-08-06T12:25:59;3.10;;;2.40;;
19111;SDS011;9688;51.906;8.376;2023-08-06T12:28:45;2.90;;;2.00;;
19111;SDS011;9688;51.906;8.376;2023-08-06T12:31:32;4.23;;;2.60;;
19111;SDS011;9688;51.906;8.376;2023-08-06T12:34:21;4.77;;;2.50;;
19111;SDS011;9688;51.906;8.376;2023-08-06T12:37:07;4.03;;;2.40;;
19111;SDS011;9688;51.906;8.376;2023-08-06T12:39:53;2.10;;;2.00;;
19111;SDS011;9688;51.906;8.376;2023-08-06T12:42:39;2.73;;;2.20;;
19111;SDS011;9688;51.906;8.376;2023-08-06T12:45:25;4.43;;;2.50;;
19111;SDS011;9688;51.906;8.376;2023-08-06T12:48:12;2.70;;;2.50;;
19111;SDS011;9688;51.906;8.376;2023-08-06T12:50:58;2.50;;;2.03;;
19111;SDS011;9688;51.906;8.376;2023-08-06T12:53:44;3.93;;;2.80;;
19111;SDS011;9688;51.906;8.376;2023-08-06T12:56:30;3.07;;;2.67;;
19111;SDS011;9688;51.906;8.376;2023-08-06T12:59:16;3.00;;;2.83;;
19111;SDS011;9688;51.906;8.376;2023-08-06T13:02:02;3.47;;;2.80;;
19111;SDS011;9688;51.906;8.376;2023-08-06T13:04:50;2.53;;;2.43;;
19111;SDS011;9688;51.906;8.376;2023-08-06T13:07:35;3.00;;;2.70;;
19111;SDS011;9688;51.906;8.376;2023-08-06T13:10:21;4.40;;;2.93;;
19111;SDS011;9688;51.906;8.376;2023-08-06T13:13:08;4.40;;;2.50;;
19111;SDS011;9688;51.906;8.376;2023-08-06T13:15:55;4.00;;;2.73;;
19111;SDS011;9688;51.906;8.376;2023-08-06T13:18:40;3.60;;;2.53;;
19111;SDS011;9688;51.906;8.376;2023-08-06T13:21:30;2.70;;;2.33;;
19111;SDS011;9688;51.906;8.376;2023-08-06T13:24:19;2.80;;;2.40;;
19111;SDS011;9688;51.906;8.376;2023-08-06T13:27:05;2.80;;;2.60;;
19111;SDS011;9688;51.906;8.376;2023-08-06T13:29:53;3.97;;;2.70;;
19111;SDS011;9688;51.906;8.376;2023-08-06T13:32:39;4.90;;;3.10;;
19111;SDS011;9688;51.906;8.376;2023-08-06T13:35:25;6.47;;;3.70;;
19111;SDS011;9688;51.906;8.376;2023-08-06T13:38:12;5.73;;;2.90;;
19111;SDS011;9688;51.906;8.376;2023-08-06T13:40:58;4.50;;;2.90;;
19111;SDS011;9688;51.906;8.376;2023-08-06T13:43:44;2.23;;;2.00;;
19111;SDS011;9688;51.906;8.376;2023-08-06T13:46:30;2.67;;;2.23;;
19111;SDS011;9688;51.906;8.376;2023-08-06T13:49:16;4.83;;;2.03;;
19111;SDS011;9688;51.906;8.376;2023-08-06T13:52:01;1.90;;;1.67;;
19111;SDS011;9688;51.906;8.376;2023-08-06T13:54:52;2.10;;;2.00;;
19111;SDS011;9688;51.906;8.376;2023-08-06T13:57:38;2.63;;;1.87;;
19111;SDS011;9688;51.906;8.376;2023-08-06T14:00:24;2.00;;;1.90;;
19111;SDS011;9688;51.906;8.376;2023-08-06T14:03:10;2.13;;;2.03;;
19111;SDS011;9688;51.906;8.376;2023-08-06T14:05:56;2.10;;;2.00;;
19111;SDS011;9688;51.906;8.376;2023-08-06T14:08:42;2.30;;;2.20;;
19111;SDS011;9688;51.906;8.376;2023-08-06T14:11:29;2.07;;;2.03;;
19111;SDS011;9688;51.906;8.376;2023-08-06T14:14:15;2.70;;;2.40;;
19111;SDS011;9688;51.906;8.376;2023-08-06T14:17:01;2.70;;;2.50;;
19111;SDS011;9688;51.906;8.376;2023-08-06T14:19:47;3.23;;;2.80;;
19111;SDS011;9688;51.906;8.376;2023-08-06T14:22:33;3.20;;;2.90;;
19111;SDS011;9688;51.906;8.376;2023-08-06T14:25:19;3.73;;;3.10;;
19111;SDS011;9688;51.906;8.376;2023-08-06T14:28:07;5.60;;;3.40;;
19111;SDS011;9688;51.906;8.376;2023-08-06T14:30:53;5.40;;;3.77;;
19111;SDS011;9688;51.906;8.376;2023-08-06T14:33:40;4.60;;;3.60;;
19111;SDS011;9688;51.906;8.376;2023-08-06T14:36:26;5.80;;;3.80;;
19111;SDS011;9688;51.906;8.376;2023-08-06T14:39:12;4.33;;;3.70;;
19111;SDS011;9688;51.906;8.376;2023-08-06T14:41:58;4.13;;;3.80;;
19111;SDS011;9688;51.906;8.376;2023-08-06T14:44:45;7.47;;;3.83;;
19111;SDS011;9688;51.906;8.376;2023-08-06T14:47:56;4.10;;;3.47;;
19111;SDS011;9688;51.906;8.376;2023-08-06T14:50:42;4.07;;;3.67;;
19111;SDS011;9688;51.906;8.376;2023-08-06T14:53:28;5.30;;;4.13;;
19111;SDS011;9688;51.906;8.376;2023-08-06T14:56:14;10.40;;;4.00;;
19111;SDS011;9688;51.906;8.376;2023-08-06T14:59:00;6.50;;;3.70;;
19111;SDS011;9688;51.906;8.376;2023-08-06T15:01:47;5.27;;;4.50;;
19111;SDS011;9688;51.906;8.376;2023-08-06T15:04:33;3.77;;;3.47;;
19111;SDS011;9688;51.906;8.376;2023-08-06T15:07:19;10.73;;;6.57;;
19111;SDS011;9688;51.906;8.376;2023-08-06T15:10:05;4.80;;;3.50;;
19111;SDS011;9688;51.906;8.376;2023-08-06T15:12:51;4.63;;;3.43;;
19111;SDS011;9688;51.906;8.376;2023-08-06T15:15:37;5.93;;;4.00;;
19111;SDS011;9688;51.906;8.376;2023-08-06T15:18:27;4.30;;;3.10;;
19111;SDS011;9688;51.906;8.376;2023-08-06T15:21:13;3.87;;;3.00;;
19111;SDS011;9688;51.906;8.376;2023-08-06T15:23:59;3.10;;;2.77;;
19111;SDS011;9688;51.906;8.376;2023-08-06T15:26:45;2.37;;;2.27;;
19111;SDS011;9688;51.906;8.376;2023-08-06T15:29:31;3.27;;;2.20;;
19111;SDS011;9688;51.906;8.376;2023-08-06T15:32:17;1.97;;;1.87;;
19111;SDS011;9688;51.906;8.376;2023-08-06T15:35:05;2.40;;;2.20;;
19111;SDS011;9688;51.906;8.376;2023-08-06T15:37:53;2.30;;;2.20;;
19111;SDS011;9688;51.906;8.376;2023-08-06T15:40:39;2.30;;;2.10;;
19111;SDS011;9688;51.906;8.376;2023-08-06T15:43:25;2.20;;;2.10;;
19111;SDS011;9688;51.906;8.376;2023-08-06T15:46:11;2.27;;;2.10;;
19111;SDS011;9688;51.906;8.376;2023-08-06T15:48:56;5.23;;;2.13;;
19111;SDS011;9688;51.906;8.376;2023-08-06T15:51:43;1.70;;;1.60;;
19111;SDS011;9688;51.906;8.376;2023-08-06T15:54:29;1.90;;;1.80;;
19111;SDS011;9688;51.906;8.376;2023-08-06T15:57:15;1.90;;;1.80;;
19111;SDS011;9688;51.906;8.376;2023-08-06T16:00:02;2.40;;;2.20;;
19111;SDS011;9688;51.906;8.376;2023-08-06T16:02:49;3.23;;;1.90;;
19111;SDS011;9688;51.906;8.376;2023-08-06T16:05:34;2.47;;;2.10;;
19111;SDS011;9688;51.906;8.376;2023-08-06T16:08:22;5.17;;;2.83;;
19111;SDS011;9688;51.906;8.376;2023-08-06T16:11:08;8.20;;;3.87;;
19111;SDS011;9688;51.906;8.376;2023-08-06T16:13:54;4.77;;;2.97;;
19111;SDS011;9688;51.906;8.376;2023-08-06T16:16:40;2.93;;;2.70;;
19111;SDS011;9688;51.906;8.376;2023-08-06T16:19:27;5.37;;;2.57;;
19111;SDS011;9688;51.906;8.376;2023-08-06T16:22:14;4.70;;;2.50;;
19111;SDS011;9688;51.906;8.376;2023-08-06T16:25:01;2.63;;;2.43;;
19111;SDS011;9688;51.906;8.376;2023-08-06T16:27:49;3.23;;;2.93;;
19111;SDS011;9688;51.906;8.376;2023-08-06T16:30:34;44.83;;;6.80;;
19111;SDS011;9688;51.906;8.376;2023-08-06T16:33:20;13.63;;;4.83;;
19111;SDS011;9688;51.906;8.376;2023-08-06T16:36:10;9.53;;;4.17;;
19111;SDS011;9688;51.906;8.376;2023-08-06T16:38:56;23.03;;;8.43;;
19111;SDS011;9688;51.906;8.376;2023-08-06T16:41:43;7.93;;;4.63;;
19111;SDS011;9688;51.906;8.376;2023-08-06T16:44:29;6.07;;;4.00;;
19111;SDS011;9688;51.906;8.376;2023-08-06T16:47:18;4.30;;;3.00;;
19111;SDS011;9688;51.906;8.376;2023-08-06T16:50:05;3.73;;;2.83;;
19111;SDS011;9688;51.906;8.376;2023-08-06T16:52:52;4.00;;;3.10;;
19111;SDS011;9688;51.906;8.376;2023-08-06T16:55:37;7.23;;;4.10;;
19111;SDS011;9688;51.906;8.376;2023-08-06T16:58:26;6.97;;;3.77;;
19111;SDS011;9688;51.906;8.376;2023-08-06T17:01:13;10.37;;;4.20;;
19111;SDS011;9688;51.906;8.376;2023-08-06T17:03:59;8.67;;;5.20;;
19111;SDS011;9688;51.906;8.376;2023-08-06T17:06:45;9.33;;;5.03;;